sensor_id;sensor_type;location;lat;lon;timestamp;pressure;altitude;pressure_sealevel;temperature;humidity
3254;BME280;1639;42.804;23.342;2023-05-20T00:01:57;73166.69;;;-148.52;95.11
3254;BME280;1639;42.804;23.342;2023-05-20T00:04:22;73179.09;;;-148.52;96.66
3254;BME280;1639;42.804;23.342;2023-05-20T00:06:48;73195.66;;;-148.52;99.91
3254;BME280;1639;42.804;23.342;2023-05-20T00:09:13;73216.34;;;-148.52;100.00
3254;BME280;1639;42.804;23.342;2023-05-20T00:11:38;73208.06;;;-148.52;100.00
3254;BME280;1639;42.804;23.342;2023-05-20T00:14:04;73203.94;;;-148.52;100.00
3254;BME280;1639;42.804;23.342;2023-05-20T00:16:30;73187.38;;;-148.52;100.00
3254;BME280;1639;42.804;23.342;2023-05-20T00:18:55;73189.44;;;-148.52;100.00
3254;BME280;1639;42.804;23.342;2023-05-20T00:21:21;73191.53;;;-148.52;100.00
3254;BME280;1639;42.804;23.342;2023-05-20T00:23:47;73214.28;;;-148.52;95.98
3254;BME280;1639;42.804;23.342;2023-05-20T00:26:12;73226.69;;;-148.52;93.71
3254;BME280;1639;42.804;23.342;2023-05-20T00:28:37;73241.16;;;-148.52;95.38
3254;BME280;1639;42.804;23.342;2023-05-20T00:31:03;73245.28;;;-148.52;95.77
3254;BME280;1639;42.804;23.342;2023-05-20T00:33:29;73270.13;;;-148.52;100.00
3254;BME280;1639;42.804;23.342;2023-05-20T00:35:54;73299.06;;;-148.52;100.00
3254;BME280;1639;42.804;23.342;2023-05-20T00:38:20;73286.66;;;-148.52;100.00
3254;BME280;1639;42.804;23.342;2023-05-20T00:40:45;73284.59;;;-148.52;100.00
3254;BME280;1639;42.804;23.342;2023-05-20T00:43:11;73282.53;;;-148.52;100.00
3254;BME280;1639;42.804;23.342;2023-05-20T00:45:37;73284.59;;;-148.52;100.00
3254;BME280;1639;42.804;23.342;2023-05-20T00:48:03;73290.81;;;-148.52;100.00
3254;BME280;1639;42.804;23.342;2023-05-20T00:50:29;73297.00;;;-148.52;100.00
3254;BME280;1639;42.804;23.342;2023-05-20T00:52:55;73294.94;;;-148.52;100.00
3254;BME280;1639;42.804;23.342;2023-05-20T00:55:21;73292.88;;;-148.52;100.00
3254;BME280;1639;42.804;23.342;2023-05-20T00:57:51;73299.06;;;-148.52;100.00
3254;BME280;1639;42.804;23.342;2023-05-20T01:00:17;73307.34;;;-148.52;100.00
3254;BME280;1639;42.804;23.342;2023-05-20T01:02:42;73315.63;;;-148.52;100.00
3254;BME280;1639;42.804;23.342;2023-05-20T01:05:08;73328.03;;;-148.52;100.00
3254;BME280;1639;42.804;23.342;2023-05-20T01:07:33;73325.97;;;-148.52;100.00
3254;BME280;1639;42.804;23.342;2023-05-20T01:09:59;73323.91;;;-148.52;100.00
3254;BME280;1639;42.804;23.342;2023-05-20T01:12:30;73319.75;;;-148.52;100.00
3254;BME280;1639;42.804;23.342;2023-05-20T01:15:14;73323.91;;;-148.52;100.00
3254;BME280;1639;42.804;23.342;2023-05-20T01:17:45;73383.88;;;-148.52;100.00
3254;BME280;1639;42.804;23.342;2023-05-20T01:20:12;73346.66;;;-148.52;100.00
3254;BME280;1639;42.804;23.342;2023-05-20T01:22:46;73342.50;;;-148.52;100.00
3254;BME280;1639;42.804;23.342;2023-05-20T01:25:11;73340.44;;;-148.52;100.00
3254;BME280;1639;42.804;23.342;2023-05-20T01:27:37;73371.47;;;-148.52;100.00
3254;BME280;1639;42.804;23.342;2023-05-20T01:30:02;73352.84;;;-148.52;100.00
3254;BME280;1639;42.804;23.342;2023-05-20T01:32:33;73350.78;;;-148.52;100.00
3254;BME280;1639;42.804;23.342;2023-05-20T01:35:01;73359.06;;;-148.52;100.00
3254;BME280;1639;42.804;23.342;2023-05-20T01:37:30;73354.91;;;-148.52;100.00
3254;BME280;1639;42.804;23.342;2023-05-20T01:39:56;73361.13;;;-148.52;100.00
3254;BME280;1639;42.804;23.342;2023-05-20T01:42:22;73365.25;;;-148.52;100.00
3254;BME280;1639;42.804;23.342;2023-05-20T01:44:48;73357.00;;;-148.52;100.00
3254;BME280;1639;42.804;23.342;2023-05-20T01:47:13;73346.66;;;-148.52;100.00
3254;BME280;1639;42.804;23.342;2023-05-20T01:49:38;73383.88;;;-148.52;100.00
3254;BME280;1639;42.804;23.342;2023-05-20T01:52:04;73365.25;;;-148.52;100.00
3254;BME280;1639;42.804;23.342;2023-05-20T01:54:30;73363.19;;;-148.52;100.00
3254;BME280;1639;42.804;23.342;2023-05-20T01:56:55;73394.22;;;-148.52;100.00
3254;BME280;1639;42.804;23.342;2023-05-20T01:59:20;73406.63;;;-148.52;100.00
3254;BME280;1639;42.804;23.342;2023-05-20T02:01:46;73439.72;;;-148.52;100.00
3254;BME280;1639;42.804;23.342;2023-05-20T02:04:11;73431.44;;;-148.52;100.00
3254;BME280;1639;42.804;23.342;2023-05-20T02:06:37;73435.59;;;-148.52;100.00
3254;BME280;1639;42.804;23.342;2023-05-20T02:09:02;73443.84;;;-148.52;100.00
3254;BME280;1639;42.804;23.342;2023-05-20T02:11:28;73437.66;;;-148.52;100.00
3254;BME280;1639;42.804;23.342;2023-05-20T02:13:53;73433.53;;;-148.52;100.00
3254;BME280;1639;42.804;23.342;2023-05-20T02:16:18;73435.59;;;-148.52;100.00
3254;BME280;1639;42.804;23.342;2023-05-20T02:18:44;73468.69;;;-148.52;100.00
3254;BME280;1639;42.804;23.342;2023-05-20T02:21:09;73472.81;;;-148.52;100.00
3254;BME280;1639;42.804;23.342;2023-05-20T02:23:35;73464.53;;;-148.52;100.00
3254;BME280;1639;42.804;23.342;2023-05-20T02:26:01;73468.69;;;-148.52;100.00
3254;BME280;1639;42.804;23.342;2023-05-20T02:28:26;73468.69;;;-148.52;100.00
3254;BME280;1639;42.804;23.342;2023-05-20T02:30:52;73472.81;;;-148.52;100.00
3254;BME280;1639;42.804;23.342;2023-05-20T02:33:20;73481.09;;;-148.52;100.00
3254;BME280;1639;42.804;23.342;2023-05-20T02:35:45;73505.91;;;-148.52;100.00
3254;BME280;1639;42.804;23.342;2023-05-20T02:38:11;73497.63;;;-148.52;100.00
3254;BME280;1639;42.804;23.342;2023-05-20T02:40:37;73501.78;;;-148.52;100.00
3254;BME280;1639;42.804;23.342;2023-05-20T02:43:02;73487.31;;;-148.52;100.00
3254;BME280;1639;42.804;23.342;2023-05-20T02:45:27;73472.81;;;-148.52;100.00
3254;BME280;1639;42.804;23.342;2023-05-20T02:47:53;73458.34;;;-148.52;100.00
3254;BME280;1639;42.804;23.342;2023-05-20T02:50:18;73456.28;;;-148.52;100.00
3254;BME280;1639;42.804;23.342;2023-05-20T02:52:44;73450.06;;;-148.52;100.00
3254;BME280;1639;42.804;23.342;2023-05-20T02:55:10;73445.94;;;-148.52;100.00
3254;BME280;1639;42.804;23.342;2023-05-20T02:57:36;73448.00;;;-148.52;100.00
3254;BME280;1639;42.804;23.342;2023-05-20T03:00:06;73448.00;;;-148.52;100.00
3254;BME280;1639;42.804;23.342;2023-05-20T03:02:32;73443.84;;;-148.52;100.00
3254;BME280;1639;42.804;23.342;2023-05-20T03:04:58;73448.00;;;-148.52;100.00
3254;BME280;1639;42.804;23.342;2023-05-20T03:07:24;73445.94;;;-148.52;100.00
3254;BME280;1639;42.804;23.342;2023-05-20T03:09:49;73448.00;;;-148.52;100.00
3254;BME280;1639;42.804;23.342;2023-05-20T03:12:15;73454.19;;;-148.52;100.00
3254;BME280;1639;42.804;23.342;2023-05-20T03:14:40;73448.00;;;-148.52;100.00
3254;BME280;1639;42.804;23.342;2023-05-20T03:17:05;73448.00;;;-148.52;100.00
3254;BME280;1639;42.804;23.342;2023-05-20T03:19:31;73468.69;;;-148.52;100.00
3254;BME280;1639;42.804;23.342;2023-05-20T03:21:56;73487.31;;;-148.52;100.00
3254;BME280;1639;42.804;23.342;2023-05-20T03:24:25;73489.38;;;-148.52;100.00
3254;BME280;1639;42.804;23.342;2023-05-20T03:26:50;73493.50;;;-148.52;100.00
3254;BME280;1639;42.804;23.342;2023-05-20T03:29:16;73487.31;;;-148.52;100.00
3254;BME280;1639;42.804;23.342;2023-05-20T03:31:42;73489.38;;;-148.52;100.00
3254;BME280;1639;42.804;23.342;2023-05-20T03:34:07;73472.81;;;-148.52;100.00
3254;BME280;1639;42.804;23.342;2023-05-20T03:36:32;73470.75;;;-148.52;100.00
3254;BME280;1639;42.804;23.342;2023-05-20T03:38:58;73468.69;;;-148.52;100.00
3254;BME280;1639;42.804;23.342;2023-05-20T03:41:23;73481.09;;;-148.52;100.00
3254;BME280;1639;42.804;23.342;2023-05-20T03:43:48;73476.97;;;-148.52;100.00
3254;BME280;1639;42.804;23.342;2023-05-20T03:46:14;73472.81;;;-148.52;100.00
3254;BME280;1639;42.804;23.342;2023-05-20T03:48:39;73462.47;;;-148.52;100.00
3254;BME280;1639;42.804;23.342;2023-05-20T03:51:05;73448.00;;;-148.52;100.00
3254;BME280;1639;42.804;23.342;2023-05-20T03:53:30;73450.06;;;-148.52;100.00
3254;BME280;1639;42.804;23.342;2023-05-20T03:55:56;73439.72;;;-148.52;100.00
3254;BME280;1639;42.804;23.342;2023-05-20T03:58:21;73427.31;;;-148.52;100.00
3254;BME280;1639;42.804;23.342;2023-05-20T04:00:47;73416.97;;;-148.52;100.00
3254;BME280;1639;42.804;23.342;2023-05-20T04:03:13;73396.28;;;-148.52;100.00
3254;BME280;1639;42.804;23.342;2023-05-20T04:05:39;73388.00;;;-148.52;100.00
3254;BME280;1639;42.804;23.342;2023-05-20T04:08:05;73385.94;;;-148.52;100.00
3254;BME280;1639;42.804;23.342;2023-05-20T04:10:30;73361.13;;;-148.52;100.00
3254;BME280;1639;42.804;23.342;2023-05-20T04:12:59;73350.78;;;-148.52;100.00
3254;BME280;1639;42.804;23.342;2023-05-20T04:15:25;73336.31;;;-148.52;100.00
3254;BME280;1639;42.804;23.342;2023-05-20T04:17:50;73325.97;;;-148.52;100.00
3254;BME280;1639;42.804;23.342;2023-05-20T04:20:17;73305.28;;;-148.52;100.00
3254;BME280;1639;42.804;23.342;2023-05-20T04:22:46;73280.47;;;-148.52;100.00
3254;BME280;1639;42.804;23.342;2023-05-20T04:25:12;73272.19;;;-148.52;100.00
3254;BME280;1639;42.804;23.342;2023-05-20T04:27:38;73272.19;;;-148.52;100.00
3254;BME280;1639;42.804;23.342;2023-05-20T04:30:05;73251.50;;;-148.52;100.00
3254;BME280;1639;42.804;23.342;2023-05-20T04:32:31;73241.16;;;-148.52;100.00
3254;BME280;1639;42.804;23.342;2023-05-20T04:34:58;73249.44;;;-148.52;100.00
3254;BME280;1639;42.804;23.342;2023-05-20T04:37:26;73234.94;;;-148.52;100.00
3254;BME280;1639;42.804;23.342;2023-05-20T04:39:51;73216.34;;;-148.52;100.00
3254;BME280;1639;42.804;23.342;2023-05-20T04:42:17;73216.34;;;-148.52;100.00
3254;BME280;1639;42.804;23.342;2023-05-20T04:44:43;73208.06;;;-148.52;100.00
3254;BME280;1639;42.804;23.342;2023-05-20T04:47:13;73203.94;;;-148.52;100.00
3254;BME280;1639;42.804;23.342;2023-05-20T04:49:38;73212.19;;;-148.52;100.00
3254;BME280;1639;42.804;23.342;2023-05-20T04:52:04;73193.59;;;-148.52;100.00
3254;BME280;1639;42.804;23.342;2023-05-20T04:54:31;73166.69;;;-148.52;100.00
3254;BME280;1639;42.804;23.342;2023-05-20T04:56:57;73141.88;;;-148.52;100.00
3254;BME280;1639;42.804;23.342;2023-05-20T04:59:22;73125.34;;;-148.52;100.00
3254;BME280;1639;42.804;23.342;2023-05-20T05:01:48;73100.50;;;-148.52;100.00
3254;BME280;1639;42.804;23.342;2023-05-20T05:04:13;73083.97;;;-148.52;100.00
3254;BME280;1639;42.804;23.342;2023-05-20T05:06:38;73067.41;;;-148.52;100.00
3254;BME280;1639;42.804;23.342;2023-05-20T05:09:04;73046.75;;;-148.52;100.00
3254;BME280;1639;42.804;23.342;2023-05-20T05:11:29;73026.06;;;-148.52;100.00
3254;BME280;1639;42.804;23.342;2023-05-20T05:13:55;73007.44;;;-148.52;100.00
3254;BME280;1639;42.804;23.342;2023-05-20T05:16:21;72984.69;;;-148.52;99.33
3254;BME280;1639;42.804;23.342;2023-05-20T05:18:46;72976.41;;;-148.52;97.08
3254;BME280;1639;42.804;23.342;2023-05-20T05:21:12;72964.00;;;-148.52;99.90
3254;BME280;1639;42.804;23.342;2023-05-20T05:23:37;72947.47;;;-148.52;97.41
3254;BME280;1639;42.804;23.342;2023-05-20T05:26:03;72935.06;;;-148.52;94.73
3254;BME280;1639;42.804;23.342;2023-05-20T05:28:28;72922.66;;;-148.52;93.56
3254;BME280;1639;42.804;23.342;2023-05-20T05:30:54;72910.25;;;-148.52;94.22
3254;BME280;1639;42.804;23.342;2023-05-20T05:33:20;72924.72;;;-148.52;92.96
3254;BME280;1639;42.804;23.342;2023-05-20T05:35:46;72928.84;;;-148.52;91.92
3254;BME280;1639;42.804;23.342;2023-05-20T05:38:11;72912.31;;;-148.52;94.77
3254;BME280;1639;42.804;23.342;2023-05-20T05:40:37;72893.69;;;-148.52;94.69
3254;BME280;1639;42.804;23.342;2023-05-20T05:43:03;72877.16;;;-148.52;93.50
3254;BME280;1639;42.804;23.342;2023-05-20T05:45:28;72875.06;;;-148.52;93.09
3254;BME280;1639;42.804;23.342;2023-05-20T05:47:53;72856.47;;;-148.52;90.02
3254;BME280;1639;42.804;23.342;2023-05-20T05:50:19;72858.53;;;-148.52;88.65
3254;BME280;1639;42.804;23.342;2023-05-20T05:52:44;72842.00;;;-148.52;88.82
3254;BME280;1639;42.804;23.342;2023-05-20T05:55:10;72827.50;;;-148.52;89.19
3254;BME280;1639;42.804;23.342;2023-05-20T05:57:36;72806.81;;;-148.52;88.92
3254;BME280;1639;42.804;23.342;2023-05-20T06:00:02;72802.69;;;-148.52;86.54
3254;BME280;1639;42.804;23.342;2023-05-20T06:02:28;72786.16;;;-148.52;84.34
3254;BME280;1639;42.804;23.342;2023-05-20T06:04:54;72761.34;;;-148.52;83.84
3254;BME280;1639;42.804;23.342;2023-05-20T06:07:19;72740.66;;;-148.52;83.81
3254;BME280;1639;42.804;23.342;2023-05-20T06:09:44;72717.91;;;-148.52;84.84
3254;BME280;1639;42.804;23.342;2023-05-20T06:12:10;72691.00;;;-148.52;83.69
3254;BME280;1639;42.804;23.342;2023-05-20T06:14:35;72680.69;;;-148.52;81.41
3254;BME280;1639;42.804;23.342;2023-05-20T06:17:02;72655.84;;;-148.52;80.75
3254;BME280;1639;42.804;23.342;2023-05-20T06:19:27;72649.66;;;-148.52;80.46
3254;BME280;1639;42.804;23.342;2023-05-20T06:21:52;72643.44;;;-148.52;80.95
3254;BME280;1639;42.804;23.342;2023-05-20T06:24:18;72604.16;;;-148.52;79.82
3254;BME280;1639;42.804;23.342;2023-05-20T06:26:43;72589.69;;;-148.52;79.22
3254;BME280;1639;42.804;23.342;2023-05-20T06:29:10;72593.81;;;-148.52;77.61
3254;BME280;1639;42.804;23.342;2023-05-20T06:31:35;72595.88;;;-148.52;77.93
3254;BME280;1639;42.804;23.342;2023-05-20T06:34:01;72552.47;;;-148.52;77.92
3254;BME280;1639;42.804;23.342;2023-05-20T06:36:26;72519.38;;;-148.52;77.32
3254;BME280;1639;42.804;23.342;2023-05-20T06:38:52;72498.69;;;-148.52;75.90
3254;BME280;1639;42.804;23.342;2023-05-20T06:41:17;72463.53;;;-148.52;75.47
3254;BME280;1639;42.804;23.342;2023-05-20T06:43:43;72432.53;;;-148.52;73.54
3254;BME280;1639;42.804;23.342;2023-05-20T06:46:08;72397.38;;;-148.52;72.54
3254;BME280;1639;42.804;23.342;2023-05-20T06:48:33;72368.41;;;-148.52;71.76
3254;BME280;1639;42.804;23.342;2023-05-20T06:50:59;72345.66;;;-148.52;69.21
3254;BME280;1639;42.804;23.342;2023-05-20T06:53:25;72308.44;;;-148.52;66.68
3254;BME280;1639;42.804;23.342;2023-05-20T06:55:52;72281.56;;;-148.52;64.62
3254;BME280;1639;42.804;23.342;2023-05-20T06:58:19;72250.53;;;-148.52;64.81
3254;BME280;1639;42.804;23.342;2023-05-20T07:00:46;72240.22;;;-148.52;64.59
3254;BME280;1639;42.804;23.342;2023-05-20T07:03:11;72242.28;;;-148.52;62.35
3254;BME280;1639;42.804;23.342;2023-05-20T07:05:37;72200.91;;;-148.52;59.39
3254;BME280;1639;42.804;23.342;2023-05-20T07:08:02;72174.03;;;-148.52;58.24
3254;BME280;1639;42.804;23.342;2023-05-20T07:10:28;72140.94;;;-148.52;58.98
3254;BME280;1639;42.804;23.342;2023-05-20T07:12:53;72103.72;;;-148.52;57.75
3254;BME280;1639;42.804;23.342;2023-05-20T07:15:19;72047.91;;;-148.52;52.71
3254;BME280;1639;42.804;23.342;2023-05-20T07:17:44;72025.16;;;-148.52;51.72
3254;BME280;1639;42.804;23.342;2023-05-20T07:20:10;72021.03;;;-148.52;52.62
3254;BME280;1639;42.804;23.342;2023-05-20T07:22:35;72004.47;;;-148.52;50.81
3254;BME280;1639;42.804;23.342;2023-05-20T07:25:01;71983.81;;;-148.52;51.36
3254;BME280;1639;42.804;23.342;2023-05-20T07:27:26;71950.72;;;-148.52;51.28
3254;BME280;1639;42.804;23.342;2023-05-20T07:29:51;71938.31;;;-148.52;51.13
3254;BME280;1639;42.804;23.342;2023-05-20T07:32:17;71905.22;;;-148.52;50.23
3254;BME280;1639;42.804;23.342;2023-05-20T07:34:42;71925.91;;;-148.52;49.87
3254;BME280;1639;42.804;23.342;2023-05-20T07:37:08;71946.59;;;-148.52;51.49
3254;BME280;1639;42.804;23.342;2023-05-20T07:39:34;71942.44;;;-148.52;49.69
3254;BME280;1639;42.804;23.342;2023-05-20T07:41:59;71915.56;;;-148.52;50.39
3254;BME280;1639;42.804;23.342;2023-05-20T07:44:25;71925.91;;;-148.52;50.33
3254;BME280;1639;42.804;23.342;2023-05-20T07:46:50;71911.44;;;-148.52;50.25
3254;BME280;1639;42.804;23.342;2023-05-20T07:49:16;71911.44;;;-148.52;51.15
3254;BME280;1639;42.804;23.342;2023-05-20T07:51:41;71888.69;;;-148.52;50.18
3254;BME280;1639;42.804;23.342;2023-05-20T07:54:07;71874.22;;;-148.52;48.90
3254;BME280;1639;42.804;23.342;2023-05-20T07:56:32;71901.09;;;-148.52;50.02
3254;BME280;1639;42.804;23.342;2023-05-20T07:58:58;71930.03;;;-148.52;50.41
3254;BME280;1639;42.804;23.342;2023-05-20T08:01:25;71917.63;;;-148.52;50.75
3254;BME280;1639;42.804;23.342;2023-05-20T08:03:51;71925.91;;;-148.52;51.09
3254;BME280;1639;42.804;23.342;2023-05-20T08:06:16;71961.06;;;-148.52;50.94
3254;BME280;1639;42.804;23.342;2023-05-20T08:08:42;71938.31;;;-148.52;47.83
3254;BME280;1639;42.804;23.342;2023-05-20T08:11:08;71969.34;;;-148.52;47.49
3254;BME280;1639;42.804;23.342;2023-05-20T08:13:34;71975.53;;;-148.52;47.02
3254;BME280;1639;42.804;23.342;2023-05-20T08:15:59;72037.56;;;-148.52;47.65
3254;BME280;1639;42.804;23.342;2023-05-20T08:18:25;72060.31;;;-148.52;48.20
3254;BME280;1639;42.804;23.342;2023-05-20T08:20:51;72045.84;;;-148.52;48.26
3254;BME280;1639;42.804;23.342;2023-05-20T08:23:17;72076.84;;;-148.52;46.98
3254;BME280;1639;42.804;23.342;2023-05-20T08:25:42;72054.09;;;-148.52;48.95
3254;BME280;1639;42.804;23.342;2023-05-20T08:28:10;72018.94;;;-148.52;47.47
3254;BME280;1639;42.804;23.342;2023-05-20T08:30:36;72045.84;;;-148.52;48.31
3254;BME280;1639;42.804;23.342;2023-05-20T08:33:02;72000.34;;;-148.52;47.70
3254;BME280;1639;42.804;23.342;2023-05-20T08:35:27;72021.03;;;-148.52;47.92
3254;BME280;1639;42.804;23.342;2023-05-20T08:37:53;71944.53;;;-148.52;47.27
3254;BME280;1639;42.804;23.342;2023-05-20T08:40:19;71932.13;;;-148.52;46.49
3254;BME280;1639;42.804;23.342;2023-05-20T08:42:47;71886.63;;;-148.52;46.35
3254;BME280;1639;42.804;23.342;2023-05-20T08:45:16;71857.69;;;-148.52;45.18
3254;BME280;1639;42.804;23.342;2023-05-20T08:47:41;71890.75;;;-148.52;46.93
3254;BME280;1639;42.804;23.342;2023-05-20T08:50:08;71851.47;;;-148.52;45.29
3254;BME280;1639;42.804;23.342;2023-05-20T08:52:36;71868.00;;;-148.52;43.59
3254;BME280;1639;42.804;23.342;2023-05-20T08:55:03;71870.09;;;-148.52;44.91
3254;BME280;1639;42.804;23.342;2023-05-20T08:57:32;71853.53;;;-148.52;44.10
3254;BME280;1639;42.804;23.342;2023-05-20T08:59:58;71913.50;;;-148.52;44.32
3254;BME280;1639;42.804;23.342;2023-05-20T09:02:24;71940.38;;;-148.52;45.60
3254;BME280;1639;42.804;23.342;2023-05-20T09:04:49;71917.63;;;-148.52;45.18
3254;BME280;1639;42.804;23.342;2023-05-20T09:07:26;71896.97;;;-148.52;45.19
3254;BME280;1639;42.804;23.342;2023-05-20T09:09:51;71872.16;;;-148.52;45.46
3254;BME280;1639;42.804;23.342;2023-05-20T09:12:19;71874.22;;;-148.52;45.21
3254;BME280;1639;42.804;23.342;2023-05-20T09:14:45;71839.06;;;-148.52;44.42
3254;BME280;1639;42.804;23.342;2023-05-20T09:17:11;71830.81;;;-148.52;45.14
3254;BME280;1639;42.804;23.342;2023-05-20T09:19:37;71834.94;;;-148.52;44.00
3254;BME280;1639;42.804;23.342;2023-05-20T09:22:03;71801.84;;;-148.52;44.24
3254;BME280;1639;42.804;23.342;2023-05-20T09:24:29;71810.13;;;-148.52;45.34
3254;BME280;1639;42.804;23.342;2023-05-20T09:26:55;71810.13;;;-148.52;44.18
3254;BME280;1639;42.804;23.342;2023-05-20T09:29:22;71818.38;;;-148.52;45.07
3254;BME280;1639;42.804;23.342;2023-05-20T09:31:48;71806.00;;;-148.52;45.74
3254;BME280;1639;42.804;23.342;2023-05-20T09:34:14;71826.66;;;-148.52;45.87
3254;BME280;1639;42.804;23.342;2023-05-20T09:36:42;71824.59;;;-148.52;42.72
3254;BME280;1639;42.804;23.342;2023-05-20T09:39:12;71793.59;;;-148.52;42.37
3254;BME280;1639;42.804;23.342;2023-05-20T09:41:45;71789.44;;;-148.52;43.53
3254;BME280;1639;42.804;23.342;2023-05-20T09:44:12;71855.59;;;-148.52;43.73
3254;BME280;1639;42.804;23.342;2023-05-20T09:46:40;71865.94;;;-148.52;44.43
3254;BME280;1639;42.804;23.342;2023-05-20T09:49:07;71888.69;;;-148.52;43.66
3254;BME280;1639;42.804;23.342;2023-05-20T09:51:32;71905.22;;;-148.52;43.11
3254;BME280;1639;42.804;23.342;2023-05-20T09:53:59;71876.28;;;-148.52;44.72
3254;BME280;1639;42.804;23.342;2023-05-20T09:56:28;71837.00;;;-148.52;46.21
3254;BME280;1639;42.804;23.342;2023-05-20T09:58:56;71911.44;;;-148.52;45.21
3254;BME280;1639;42.804;23.342;2023-05-20T10:01:23;71946.59;;;-148.52;44.49
3254;BME280;1639;42.804;23.342;2023-05-20T10:03:50;72000.34;;;-148.52;46.37
3254;BME280;1639;42.804;23.342;2023-05-20T10:09:27;72000.34;;;-148.52;45.81
3254;BME280;1639;42.804;23.342;2023-05-20T10:14:52;71969.34;;;-148.52;44.02
3254;BME280;1639;42.804;23.342;2023-05-20T10:19:45;71921.78;;;-148.52;43.50
3254;BME280;1639;42.804;23.342;2023-05-20T10:22:11;71896.97;;;-148.52;43.94
3254;BME280;1639;42.804;23.342;2023-05-20T10:24:39;71884.56;;;-148.52;43.05
3254;BME280;1639;42.804;23.342;2023-05-20T10:27:09;71971.41;;;-148.52;43.19
3254;BME280;1639;42.804;23.342;2023-05-20T10:29:52;72025.16;;;-148.52;44.51
3254;BME280;1639;42.804;23.342;2023-05-20T10:34:50;71913.50;;;-148.52;44.90
3254;BME280;1639;42.804;23.342;2023-05-20T10:37:23;71839.06;;;-148.52;44.27
3254;BME280;1639;42.804;23.342;2023-05-20T10:39:49;71863.88;;;-148.52;41.48
3254;BME280;1639;42.804;23.342;2023-05-20T10:42:15;71888.69;;;-148.52;43.41
3254;BME280;1639;42.804;23.342;2023-05-20T10:44:44;71909.38;;;-148.52;42.87
3254;BME280;1639;42.804;23.342;2023-05-20T10:47:10;71944.53;;;-148.52;42.79
3254;BME280;1639;42.804;23.342;2023-05-20T10:49:40;71919.72;;;-148.52;43.50
3254;BME280;1639;42.804;23.342;2023-05-20T10:52:08;71859.75;;;-148.52;44.12
3254;BME280;1639;42.804;23.342;2023-05-20T10:54:35;71820.47;;;-148.52;43.02
3254;BME280;1639;42.804;23.342;2023-05-20T10:57:06;71779.09;;;-148.52;40.90
3254;BME280;1639;42.804;23.342;2023-05-20T10:59:34;71748.09;;;-148.52;43.74
3254;BME280;1639;42.804;23.342;2023-05-20T11:02:00;71717.09;;;-148.52;42.44
3254;BME280;1639;42.804;23.342;2023-05-20T11:04:27;71754.28;;;-148.52;42.88
3254;BME280;1639;42.804;23.342;2023-05-20T11:06:53;71822.53;;;-148.52;42.75
3254;BME280;1639;42.804;23.342;2023-05-20T11:09:20;71812.19;;;-148.52;44.76
3254;BME280;1639;42.804;23.342;2023-05-20T11:11:46;71783.25;;;-148.52;44.38
3254;BME280;1639;42.804;23.342;2023-05-20T11:14:11;71768.78;;;-148.52;42.84
3254;BME280;1639;42.804;23.342;2023-05-20T11:16:41;71791.50;;;-148.52;42.40
3254;BME280;1639;42.804;23.342;2023-05-20T11:19:07;71764.63;;;-148.52;43.87
3254;BME280;1639;42.804;23.342;2023-05-20T11:21:33;71748.09;;;-148.52;41.28
3254;BME280;1639;42.804;23.342;2023-05-20T11:23:59;71706.75;;;-148.52;42.34
3254;BME280;1639;42.804;23.342;2023-05-20T11:26:24;71841.13;;;-148.52;43.24
3254;BME280;1639;42.804;23.342;2023-05-20T11:28:50;71830.81;;;-148.52;42.35
3254;BME280;1639;42.804;23.342;2023-05-20T11:31:17;71870.09;;;-148.52;42.71
3254;BME280;1639;42.804;23.342;2023-05-20T11:33:42;71936.25;;;-148.52;42.59
3254;BME280;1639;42.804;23.342;2023-05-20T11:36:08;71936.25;;;-148.52;43.40
3254;BME280;1639;42.804;23.342;2023-05-20T11:38:33;71884.56;;;-148.52;44.16
3254;BME280;1639;42.804;23.342;2023-05-20T11:40:59;71863.88;;;-148.52;44.02
3254;BME280;1639;42.804;23.342;2023-05-20T11:43:24;71874.22;;;-148.52;42.91
3254;BME280;1639;42.804;23.342;2023-05-20T11:45:57;71853.53;;;-148.52;42.96
3254;BME280;1639;42.804;23.342;2023-05-20T11:48:25;71814.25;;;-148.52;44.01
3254;BME280;1639;42.804;23.342;2023-05-20T11:50:53;71824.59;;;-148.52;43.12
3254;BME280;1639;42.804;23.342;2023-05-20T11:53:20;71783.25;;;-148.52;42.84
3254;BME280;1639;42.804;23.342;2023-05-20T11:55:53;71766.69;;;-148.52;42.57
3254;BME280;1639;42.804;23.342;2023-05-20T11:58:26;71772.91;;;-148.52;42.16
3254;BME280;1639;42.804;23.342;2023-05-20T12:00:52;71719.16;;;-148.52;41.97
3254;BME280;1639;42.804;23.342;2023-05-20T12:03:17;71719.16;;;-148.52;43.28
3254;BME280;1639;42.804;23.342;2023-05-20T12:05:43;71702.59;;;-148.52;41.14
3254;BME280;1639;42.804;23.342;2023-05-20T12:08:09;71706.75;;;-148.52;40.85
3254;BME280;1639;42.804;23.342;2023-05-20T12:10:34;71702.59;;;-148.52;43.07
3254;BME280;1639;42.804;23.342;2023-05-20T12:13:02;71752.22;;;-148.52;43.70
3254;BME280;1639;42.804;23.342;2023-05-20T12:15:28;71721.22;;;-148.52;40.69
3254;BME280;1639;42.804;23.342;2023-05-20T12:17:53;71748.09;;;-148.52;41.84
3254;BME280;1639;42.804;23.342;2023-05-20T12:20:23;71781.19;;;-148.52;41.94
3254;BME280;1639;42.804;23.342;2023-05-20T12:22:49;71766.69;;;-148.52;42.75
3254;BME280;1639;42.804;23.342;2023-05-20T12:25:16;71774.97;;;-148.52;41.89
3254;BME280;1639;42.804;23.342;2023-05-20T12:27:42;71816.31;;;-148.52;43.28
3254;BME280;1639;42.804;23.342;2023-05-20T12:30:14;71839.06;;;-148.52;45.85
3254;BME280;1639;42.804;23.342;2023-05-20T12:32:40;71843.19;;;-148.52;45.42
3254;BME280;1639;42.804;23.342;2023-05-20T12:35:08;71934.19;;;-148.52;46.50
3254;BME280;1639;42.804;23.342;2023-05-20T12:37:34;71909.38;;;-148.52;44.08
3254;BME280;1639;42.804;23.342;2023-05-20T12:40:00;71934.19;;;-148.52;43.92
3254;BME280;1639;42.804;23.342;2023-05-20T12:42:25;71977.59;;;-148.52;43.22
3254;BME280;1639;42.804;23.342;2023-05-20T12:44:51;71917.63;;;-148.52;43.19
3254;BME280;1639;42.804;23.342;2023-05-20T12:47:16;71880.41;;;-148.52;42.66
3254;BME280;1639;42.804;23.342;2023-05-20T12:49:42;71847.34;;;-148.52;40.50
3254;BME280;1639;42.804;23.342;2023-05-20T12:52:07;71865.94;;;-148.52;41.63